KSEZ Airport Information

Runway Information
Runway 03 Length 5129 ft width 100 ft
Elevation 4736 ft Threshold 0 ft Heading 46
Runway 21 Length 5129 ft Width 100 ft
Elevation 4827 ft Threshold 0 ft Heading 226
Airport Frequencies
Type A/D Name ALBUQUERQU Frequency 124.5 MHZ
Type AWOS Name AWOS 2 Frequency 118.525 MHZ
Type RDO Name PRESCOTT R Frequency 122.3 MHZ
Type UNIC Name CTAF/UNICO Frequency 123 MHZ
Airport Navaids
Airport Weather Information & NOTAM
ADDS - METARS form results

(2006 UTC 20 October 2021)
Data provider http://aviationweather.gov/metar/data/
 
METAR text: KSEZ 201955Z AUTO 24005KT 10SM CLR 20/00 A3023 RMK AO2
Conditions at: KSEZ (SEDONA , AZ, US) observed 1955 UTC 20 October 2021
Temperature: 20.0°C (68°F)
Dewpoint: 0.0°C (32°F) [RH = 26%]
Pressure (altimeter): 30.23 inches Hg (1023.8 mb)
Winds: from the WSW (240 degrees) at 6 MPH (5 knots; 2.6 m/s)
Visibility: 10 or more miles (16+ km)
Ceiling: at least 12,000 feet AGL
Clouds: sky clear below 12,000 feet AGL
Weather: automated observation with no human augmentation;
there may or may not be significant weather present at this time

METAR text: KSEZ 201935Z AUTO 20003KT 10SM CLR 20/03 A3024 RMK AO2
Conditions at: KSEZ (SEDONA , AZ, US) observed 1935 UTC 20 October 2021
Temperature: 20.0°C (68°F)
Dewpoint: 3.0°C (37°F) [RH = 32%]
Pressure (altimeter): 30.24 inches Hg (1024.1 mb)
Winds: from the SSW (200 degrees) at 3 MPH (3 knots; 1.5 m/s)
Visibility: 10 or more miles (16+ km)
Ceiling: at least 12,000 feet AGL
Clouds: sky clear below 12,000 feet AGL
Weather: automated observation with no human augmentation;
there may or may not be significant weather present at this time

METAR text: KSEZ 201915Z AUTO 19006KT 10SM CLR 21/03 A3025 RMK AO2
Conditions at: KSEZ (SEDONA , AZ, US) observed 1915 UTC 20 October 2021
Temperature: 21.0°C (70°F)
Dewpoint: 3.0°C (37°F) [RH = 30%]
Pressure (altimeter): 30.25 inches Hg (1024.5 mb)
Winds: from the S (190 degrees) at 7 MPH (6 knots; 3.1 m/s)
Visibility: 10 or more miles (16+ km)
Ceiling: at least 12,000 feet AGL
Clouds: sky clear below 12,000 feet AGL
Weather: automated observation with no human augmentation;
there may or may not be significant weather present at this time

Forecast for: KSEZ (SEDONA , AZ, US)
Text: KSEZ 201734Z 2018/2118 19006KT P6SM FEW200
Forecast period: 1800 UTC 20 October 2021 to 0000 UTC 21 October 2021
Forecast type: FROM: standard forecast or significant change
Winds: from the S (190 degrees) at 7 MPH (6 knots; 3.1 m/s)
Visibility: 6 or more miles (10+ km)
Ceiling: at least 12,000 feet AGL
Clouds: few clouds at 20000 feet AGL
Weather: no significant weather forecast for this period
Text: FM210000 VRB05KT P6SM SKC
Forecast period: 0000 to 0300 UTC 21 October 2021
Forecast type: FROM: standard forecast or significant change
Winds: variable direction winds at 6 MPH (5 knots; 2.6 m/s)
Visibility: 6 or more miles (10+ km)
Clouds: clear skies
Weather: no significant weather forecast for this period
Text: FM210300 05010KT P6SM FEW200
Forecast period: 0300 to 1800 UTC 21 October 2021
Forecast type: FROM: standard forecast or significant change
Winds: from the NE (50 degrees) at 12 MPH (10 knots; 5.1 m/s)
Visibility: 6 or more miles (10+ km)
Ceiling: at least 12,000 feet AGL
Clouds: few clouds at 20000 feet AGL
Weather: no significant weather forecast for this period